Time;durP1;ratioP1;P1;durP2;ratioP2;P2;SDS_P1;SDS_P2;PMS_P1;PMS_P2;Temp;Humidity;BMP_temperature;BMP_pressure;BME280_temperature;BME280_humidity;BME280_pressure;Samples;Min_cycle;Max_cycle;Signal;HPM_P1;HPM_P2
2021/10/22 00:01:56;;;;;;;9.40;4.00;;;8.20;99.90;;;;;;5026987;28;20440;-41
2021/10/22 00:04:22;;;;;;;8.87;3.43;;;8.10;99.90;;;;;;5026693;28;20554;-41
2021/10/22 00:06:48;;;;;;;9.50;4.00;;;8.20;99.90;;;;;;5027403;28;20201;-40
2021/10/22 00:09:14;;;;;;;14.13;4.30;;;8.20;99.90;;;;;;5026970;28;20868;-44
2021/10/22 00:11:44;;;;;;;11.50;3.53;;;8.10;99.90;;;;;;5026861;28;20421;-40
2021/10/22 00:14:13;;;;;;;6.07;2.83;;;8.30;99.90;;;;;;5016101;28;20234;-41
2021/10/22 00:16:39;;;;;;;6.50;3.40;;;8.30;99.90;;;;;;5027756;28;20843;-41
2021/10/22 00:19:05;;;;;;;11.10;3.37;;;8.10;99.90;;;;;;5027065;28;20452;-41
2021/10/22 00:21:31;;;;;;;7.57;3.93;;;8.20;99.90;;;;;;5029009;28;20452;-41
2021/10/22 00:23:56;;;;;;;9.80;3.70;;;8.00;99.90;;;;;;5036169;28;20198;-41
2021/10/22 00:26:22;;;;;;;10.33;3.77;;;8.10;99.90;;;;;;5046462;28;20526;-41
2021/10/22 00:28:48;;;;;;;7.83;3.37;;;8.10;99.90;;;;;;5034808;28;20526;-41
2021/10/22 00:31:13;;;;;;;11.20;3.90;;;8.20;99.90;;;;;;5023156;28;20397;-41
2021/10/22 00:33:39;;;;;;;9.10;3.67;;;8.00;99.90;;;;;;5026346;28;20190;-40
2021/10/22 00:36:07;;;;;;;10.80;3.57;;;8.10;99.90;;;;;;5026115;28;20689;-41
2021/10/22 00:38:33;;;;;;;11.80;3.30;;;8.20;99.90;;;;;;5026355;28;20178;-41
2021/10/22 00:40:59;;;;;;;9.00;3.20;;;8.00;99.90;;;;;;5026491;28;20532;-41
2021/10/22 00:43:29;;;;;;;8.17;3.40;;;8.00;99.90;;;;;;5022543;28;20549;-45
2021/10/22 00:45:55;;;;;;;7.40;2.30;;;8.20;99.90;;;;;;5016486;28;20189;-45
2021/10/22 00:48:20;;;;;;;9.00;3.43;;;7.90;99.90;;;;;;5024789;28;20429;-41
2021/10/22 00:50:51;;;;;;;9.97;4.03;;;8.00;99.90;;;;;;5026457;28;20248;-41
2021/10/22 00:53:18;;;;;;;8.00;3.17;;;8.00;99.90;;;;;;5025952;28;20641;-41
2021/10/22 00:55:44;;;;;;;5.37;2.90;;;8.00;99.90;;;;;;5025926;28;20468;-40
2021/10/22 00:58:13;;;;;;;6.87;3.70;;;8.20;99.90;;;;;;5026344;28;20444;-43
2021/10/22 01:00:39;;;;;;;9.43;3.47;;;7.90;99.90;;;;;;5012265;28;20438;-41
2021/10/22 01:03:05;;;;;;;7.30;2.97;;;7.90;99.90;;;;;;5025236;28;20862;-41
2021/10/22 01:05:32;;;;;;;6.63;3.50;;;8.10;99.90;;;;;;5026071;28;20206;-41
2021/10/22 01:07:57;;;;;;;7.10;3.40;;;8.00;99.90;;;;;;5025836;28;20440;-41
2021/10/22 01:10:23;;;;;;;5.37;2.90;;;8.00;99.90;;;;;;5026220;28;20437;-40
2021/10/22 01:12:49;;;;;;;7.03;3.13;;;8.10;99.90;;;;;;5025392;28;20213;-41
2021/10/22 01:15:15;;;;;;;7.73;3.07;;;8.10;99.90;;;;;;5016704;28;20256;-41
2021/10/22 01:17:47;;;;;;;8.53;3.10;;;8.30;99.90;;;;;;5026018;28;20189;-40
2021/10/22 01:20:18;;;;;;;9.23;3.20;;;8.30;99.90;;;;;;5024539;28;20784;-41
2021/10/22 01:22:45;;;;;;;5.60;2.70;;;8.40;99.90;;;;;;5031844;28;20492;-41
2021/10/22 01:25:14;;;;;;;8.57;3.87;;;8.40;99.90;;;;;;5045285;28;20496;-40
2021/10/22 01:27:41;;;;;;;5.97;1.90;;;8.00;99.90;;;;;;5043756;28;20416;-41
2021/10/22 01:30:09;;;;;;;5.40;2.27;;;8.20;99.90;;;;;;5022610;28;20464;-41
2021/10/22 01:32:35;;;;;;;4.33;1.87;;;8.40;99.90;;;;;;5024990;28;20811;-44
2021/10/22 01:35:02;;;;;;;6.23;2.20;;;8.40;99.90;;;;;;5025191;28;20532;-41
2021/10/22 01:37:28;;;;;;;9.80;1.97;;;8.30;99.90;;;;;;5025730;28;20783;-41
2021/10/22 01:39:53;;;;;;;4.40;1.57;;;8.40;99.90;;;;;;5025750;28;20426;-41
2021/10/22 01:42:19;;;;;;;6.00;2.03;;;8.50;99.90;;;;;;5025622;28;20511;-41
2021/10/22 01:44:45;;;;;;;9.60;2.47;;;8.30;99.90;;;;;;5019182;28;20571;-40
2021/10/22 01:47:11;;;;;;;6.83;2.33;;;8.50;99.90;;;;;;5021932;28;20479;-41
2021/10/22 01:49:37;;;;;;;7.17;2.30;;;8.50;99.90;;;;;;5025537;28;20974;-41
2021/10/22 01:52:03;;;;;;;6.57;2.50;;;8.40;99.90;;;;;;5025045;28;20193;-41
2021/10/22 01:54:28;;;;;;;2.70;1.67;;;8.30;99.90;;;;;;5024845;28;20337;-41
2021/10/22 01:56:54;;;;;;;5.80;1.80;;;8.20;99.90;;;;;;5025376;28;20571;-41
2021/10/22 01:59:20;;;;;;;8.30;1.80;;;8.40;99.90;;;;;;5021489;28;20653;-41
2021/10/22 02:01:46;;;;;;;5.33;2.40;;;8.40;99.90;;;;;;5019246;28;20191;-41
2021/10/22 02:04:11;;;;;;;4.43;1.70;;;8.40;99.90;;;;;;5021295;28;20197;-42
2021/10/22 02:06:37;;;;;;;6.63;1.93;;;8.50;99.90;;;;;;5025463;28;20671;-41
2021/10/22 02:09:03;;;;;;;5.10;2.10;;;8.30;99.90;;;;;;5025598;28;20579;-41
2021/10/22 02:11:28;;;;;;;6.00;2.40;;;8.10;99.90;;;;;;5025155;28;20178;-41
2021/10/22 02:13:54;;;;;;;8.53;2.57;;;8.20;99.90;;;;;;5024913;28;20200;-41
2021/10/22 02:16:20;;;;;;;9.03;2.80;;;8.30;99.90;;;;;;5016131;28;20252;-41
2021/10/22 02:18:46;;;;;;;6.30;2.20;;;8.20;99.90;;;;;;5025950;28;20512;-41
2021/10/22 02:21:12;;;;;;;4.57;2.50;;;8.30;99.90;;;;;;5025029;28;20417;-43
2021/10/22 02:23:38;;;;;;;9.13;2.77;;;8.30;99.90;;;;;;5042296;28;20424;-40
2021/10/22 02:26:03;;;;;;;7.87;2.30;;;8.20;99.90;;;;;;5044667;28;20217;-41
2021/10/22 02:28:29;;;;;;;9.87;3.20;;;8.20;99.90;;;;;;5045375;28;20190;-41
2021/10/22 02:30:55;;;;;;;9.43;3.17;;;8.10;99.90;;;;;;5020351;28;20190;-44
2021/10/22 02:33:21;;;;;;;9.70;3.47;;;8.00;99.90;;;;;;5024353;28;20186;-41
2021/10/22 02:35:47;;;;;;;4.70;2.67;;;8.00;99.90;;;;;;5024978;28;20503;-41
2021/10/22 02:38:13;;;;;;;10.83;2.40;;;7.90;99.90;;;;;;5025134;28;20831;-41
2021/10/22 02:40:39;;;;;;;6.63;2.37;;;8.10;99.90;;;;;;5027993;28;20202;-41
2021/10/22 02:43:04;;;;;;;6.07;2.70;;;8.20;99.90;;;;;;5028299;28;20460;-40
2021/10/22 02:45:30;;;;;;;9.63;2.27;;;8.10;99.90;;;;;;5019611;28;20288;-40
2021/10/22 02:47:56;;;;;;;7.20;2.60;;;8.30;99.90;;;;;;5028442;28;20187;-40
2021/10/22 02:50:21;;;;;;;5.37;3.40;;;8.10;99.90;;;;;;5028424;28;20187;-41
2021/10/22 02:52:48;;;;;;;6.23;2.67;;;8.30;99.90;;;;;;5028297;28;20273;-40
2021/10/22 02:55:14;;;;;;;8.33;2.70;;;8.10;99.90;;;;;;5028598;28;20596;-42
2021/10/22 02:57:40;;;;;;;7.00;2.60;;;8.30;99.90;;;;;;5028326;28;20816;-40
2021/10/22 03:00:07;;;;;;;9.37;2.63;;;8.00;99.90;;;;;;5021096;28;20425;-40
2021/10/22 03:02:32;;;;;;;12.50;2.77;;;8.10;99.90;;;;;;5019315;28;20282;-40
2021/10/22 03:04:58;;;;;;;8.63;3.17;;;8.20;99.90;;;;;;5027644;28;20512;-41
2021/10/22 03:07:24;;;;;;;8.13;2.67;;;7.90;99.90;;;;;;5028189;28;20198;-41
2021/10/22 03:09:49;;;;;;;6.17;2.60;;;7.90;99.90;;;;;;5028489;28;20281;-41
2021/10/22 03:12:15;;;;;;;8.73;2.70;;;8.00;99.90;;;;;;5026666;28;20256;-40
2021/10/22 03:14:41;;;;;;;8.30;2.87;;;8.10;99.90;;;;;;5023513;28;20764;-40
2021/10/22 03:17:07;;;;;;;4.93;2.27;;;7.90;99.90;;;;;;5018211;28;20222;-41
2021/10/22 03:19:33;;;;;;;4.87;2.30;;;8.00;99.90;;;;;;5027423;28;20199;-41
2021/10/22 03:21:58;;;;;;;7.13;2.70;;;8.00;99.90;;;;;;5033726;28;20439;-40
2021/10/22 03:24:24;;;;;;;8.37;2.70;;;8.10;99.90;;;;;;5033605;28;20186;-41
2021/10/22 03:26:50;;;;;;;4.20;2.60;;;7.70;99.90;;;;;;5046991;28;20199;-41
2021/10/22 03:29:16;;;;;;;7.70;3.43;;;7.70;99.90;;;;;;5047693;28;20189;-41
2021/10/22 03:31:42;;;;;;;8.07;3.70;;;7.90;99.90;;;;;;5018509;28;20444;-40
2021/10/22 03:34:07;;;;;;;6.73;2.80;;;7.80;99.90;;;;;;5026638;28;20417;-41
2021/10/22 03:36:37;;;;;;;10.63;2.30;;;7.70;99.90;;;;;;5027374;28;20461;-40
2021/10/22 03:39:04;;;;;;;5.50;2.37;;;7.80;99.90;;;;;;5027584;28;20281;-40
2021/10/22 03:41:29;;;;;;;10.03;3.10;;;8.00;99.90;;;;;;5028190;28;20746;-41
2021/10/22 03:43:55;;;;;;;7.77;2.30;;;7.80;99.90;;;;;;5005661;28;20683;-40
2021/10/22 03:46:21;;;;;;;4.43;2.40;;;8.10;99.90;;;;;;5016519;28;20446;-41
2021/10/22 03:48:46;;;;;;;7.30;3.10;;;8.10;99.90;;;;;;5027101;28;20672;-41
2021/10/22 03:51:13;;;;;;;7.03;2.80;;;7.70;99.90;;;;;;5026263;28;20263;-41
2021/10/22 03:53:39;;;;;;;4.93;2.23;;;7.60;99.90;;;;;;5026806;28;20240;-42
2021/10/22 03:56:05;;;;;;;7.63;2.97;;;7.40;99.90;;;;;;5025987;28;21007;-41
2021/10/22 03:58:32;;;;;;;12.23;2.23;;;7.70;99.90;;;;;;5027307;28;20437;-41
2021/10/22 04:00:58;;;;;;;6.93;2.47;;;7.70;99.90;;;;;;5018420;28;20433;-41
2021/10/22 04:03:23;;;;;;;6.80;2.13;;;7.60;99.90;;;;;;5023207;28;20941;-44
2021/10/22 04:05:49;;;;;;;7.27;2.30;;;7.60;99.90;;;;;;5027017;28;20202;-44
2021/10/22 04:08:16;;;;;;;4.97;2.20;;;7.50;99.90;;;;;;5027163;28;20265;-41
2021/10/22 04:10:43;;;;;;;10.47;3.10;;;7.80;99.90;;;;;;5027335;28;20206;-40
2021/10/22 04:13:12;;;;;;;5.53;2.43;;;7.50;99.90;;;;;;5026287;28;20813;-43
2021/10/22 04:15:40;;;;;;;6.83;2.80;;;7.90;99.90;;;;;;5019134;28;20476;-41
2021/10/22 04:18:06;;;;;;;7.20;2.40;;;7.80;99.90;;;;;;5020950;28;20433;-41
2021/10/22 04:20:32;;;;;;;8.30;2.70;;;7.80;99.90;;;;;;5026882;28;20424;-41
2021/10/22 04:22:58;;;;;;;4.23;1.70;;;7.80;99.90;;;;;;5040503;28;20436;-41
2021/10/22 04:25:25;;;;;;;4.73;2.30;;;7.70;99.90;;;;;;5037321;28;20676;-40
2021/10/22 04:27:51;;;;;;;4.73;2.87;;;7.90;99.90;;;;;;5046749;28;20432;-41
2021/10/22 04:30:17;;;;;;;8.07;2.40;;;8.00;99.90;;;;;;5042257;28;20994;-42
2021/10/22 04:32:42;;;;;;;3.40;2.10;;;7.80;99.90;;;;;;5021141;28;20186;-44
2021/10/22 04:35:08;;;;;;;6.10;2.50;;;8.00;99.90;;;;;;5026842;28;20194;-40
2021/10/22 04:37:45;;;;;;;7.53;2.43;;;7.90;99.90;;;;;;5026537;28;20672;-46
2021/10/22 04:42:56;;;;;;;6.23;2.00;;;7.90;99.90;;;;;;5025454;28;20475;-43
2021/10/22 04:45:22;;;;;;;10.20;2.20;;;7.70;99.90;;;;;;5022734;28;20434;-42
2021/10/22 04:47:48;;;;;;;5.33;1.90;;;7.90;99.90;;;;;;5022484;28;20440;-41
2021/10/22 04:50:14;;;;;;;6.57;2.13;;;7.80;99.90;;;;;;5022133;28;20788;-43
2021/10/22 04:52:40;;;;;;;7.00;2.67;;;7.90;99.90;;;;;;5023013;28;20936;-42
2021/10/22 04:55:07;;;;;;;6.10;2.30;;;8.00;99.90;;;;;;5025905;28;20431;-41
2021/10/22 04:57:33;;;;;;;5.93;1.70;;;7.90;99.90;;;;;;5026244;28;20448;-43
2021/10/22 04:59:59;;;;;;;7.77;2.50;;;7.90;99.90;;;;;;5026335;28;20417;-42
2021/10/22 05:02:24;;;;;;;3.43;2.20;;;7.70;99.90;;;;;;5021235;28;21010;-41
2021/10/22 05:04:50;;;;;;;6.37;2.53;;;7.80;99.90;;;;;;5025557;28;20663;-40
2021/10/22 05:07:18;;;;;;;7.23;2.40;;;8.00;99.90;;;;;;5025905;28;20225;-41
2021/10/22 05:09:44;;;;;;;8.97;1.90;;;7.90;99.90;;;;;;5023096;28;20433;-40
2021/10/22 05:12:09;;;;;;;8.90;2.73;;;7.80;99.90;;;;;;5026230;28;20769;-42
2021/10/22 05:14:36;;;;;;;6.23;2.00;;;7.60;99.90;;;;;;5025067;28;20586;-40
2021/10/22 05:17:03;;;;;;;3.63;2.00;;;7.70;99.90;;;;;;5011918;28;20215;-41
2021/10/22 05:19:30;;;;;;;4.40;2.10;;;7.60;99.90;;;;;;5024023;28;20810;-41
2021/10/22 05:21:55;;;;;;;6.10;2.57;;;7.60;99.90;;;;;;5026443;28;20445;-40
2021/10/22 05:24:22;;;;;;;6.23;2.37;;;7.50;99.90;;;;;;5025294;28;20475;-41
2021/10/22 05:26:48;;;;;;;6.10;2.17;;;7.80;99.90;;;;;;5024527;28;20214;-40
2021/10/22 05:29:14;;;;;;;8.37;2.67;;;7.70;99.90;;;;;;5025662;28;20511;-42
2021/10/22 05:31:39;;;;;;;4.60;2.10;;;7.80;99.90;;;;;;5018471;28;20186;-41
2021/10/22 05:34:05;;;;;;;8.83;2.07;;;7.90;99.90;;;;;;5020483;28;20421;-40
2021/10/22 05:36:31;;;;;;;8.83;2.20;;;8.00;99.90;;;;;;5025733;28;20214;-41
2021/10/22 05:38:56;;;;;;;5.70;2.17;;;7.90;99.90;;;;;;5024217;28;20264;-42
2021/10/22 05:41:22;;;;;;;8.60;2.37;;;8.00;99.90;;;;;;5023868;28;20220;-41
2021/10/22 05:43:49;;;;;;;4.27;2.07;;;7.80;99.90;;;;;;5025216;28;20198;-41
2021/10/22 05:46:18;;;;;;;5.20;2.40;;;8.00;99.90;;;;;;5019413;28;20186;-41
2021/10/22 05:48:44;;;;;;;8.17;2.63;;;7.90;99.90;;;;;;5021183;28;20784;-43
2021/10/22 05:51:10;;;;;;;3.93;1.97;;;7.90;99.90;;;;;;5021580;28;20712;-41
2021/10/22 05:53:36;;;;;;;6.33;2.23;;;7.80;99.90;;;;;;5024691;28;20440;-41
2021/10/22 05:56:02;;;;;;;7.97;2.10;;;7.90;99.90;;;;;;5025051;28;20250;-41
2021/10/22 05:58:27;;;;;;;5.23;1.90;;;8.10;99.90;;;;;;5025834;28;20269;-41
2021/10/22 06:00:53;;;;;;;7.50;2.50;;;8.10;99.90;;;;;;5021935;28;20923;-41
2021/10/22 06:03:18;;;;;;;6.40;2.20;;;8.00;99.90;;;;;;5022082;28;20179;-41
2021/10/22 06:05:51;;;;;;;7.03;2.30;;;7.90;99.90;;;;;;5022193;28;20195;-41
2021/10/22 06:08:17;;;;;;;8.90;2.70;;;8.00;99.90;;;;;;5022298;28;20182;-41
2021/10/22 06:10:42;;;;;;;5.40;2.40;;;8.00;99.90;;;;;;5025316;28;20461;-41
2021/10/22 06:13:08;;;;;;;10.80;2.40;;;8.00;99.90;;;;;;5024775;28;20456;-41
2021/10/22 06:15:34;;;;;;;7.37;2.90;;;7.90;99.90;;;;;;5026253;28;20210;-41
2021/10/22 06:18:00;;;;;;;9.60;2.50;;;7.80;99.90;;;;;;5019728;28;20187;-41
2021/10/22 06:20:28;;;;;;;9.77;3.37;;;7.70;99.90;;;;;;5030067;28;20433;-42
2021/10/22 06:25:40;;;;;;;9.53;2.40;;;7.60;99.90;;;;;;5029681;28;20515;-41
2021/10/22 06:28:05;;;;;;;6.40;2.50;;;8.00;99.90;;;;;;5027981;28;20510;-41
2021/10/22 06:30:34;;;;;;;11.20;2.70;;;7.90;99.90;;;;;;5030971;28;20429;-42
2021/10/22 06:33:00;;;;;;;4.43;2.43;;;7.90;99.90;;;;;;5023209;28;20781;-40
2021/10/22 06:35:26;;;;;;;7.30;2.97;;;7.70;99.90;;;;;;5027724;28;20433;-42
2021/10/22 06:37:54;;;;;;;7.13;2.80;;;7.80;99.90;;;;;;5017717;28;20273;-41
2021/10/22 06:40:21;;;;;;;6.20;2.90;;;7.90;99.90;;;;;;5030284;28;20776;-42
2021/10/22 06:42:47;;;;;;;8.43;2.70;;;7.70;99.90;;;;;;5029507;28;20431;-40
2021/10/22 06:45:14;;;;;;;10.07;2.70;;;7.70;99.90;;;;;;5028252;28;20421;-41
2021/10/22 06:47:40;;;;;;;8.17;2.53;;;7.80;99.90;;;;;;5022753;28;20439;-40
2021/10/22 06:50:06;;;;;;;6.10;2.60;;;7.80;99.90;;;;;;5028249;28;20675;-42
2021/10/22 06:52:32;;;;;;;7.57;2.97;;;7.90;99.90;;;;;;5029112;28;20561;-40
2021/10/22 06:54:58;;;;;;;7.03;2.07;;;8.10;99.90;;;;;;5027675;28;20476;-41
2021/10/22 06:57:24;;;;;;;5.50;2.53;;;8.10;99.90;;;;;;5029864;28;20523;-42
2021/10/22 06:59:50;;;;;;;6.80;4.73;;;8.10;99.90;;;;;;5039378;28;20660;-41
2021/10/22 07:02:16;;;;;;;5.47;2.60;;;8.10;99.90;;;;;;5023380;28;20539;-40
2021/10/22 07:04:49;;;;;;;7.60;2.67;;;8.20;99.90;;;;;;5027566;28;20183;-41
2021/10/22 07:07:15;;;;;;;6.30;2.20;;;8.10;99.90;;;;;;5028394;28;20727;-40
2021/10/22 07:09:42;;;;;;;9.17;2.40;;;8.10;99.90;;;;;;5028266;28;20432;-41
2021/10/22 07:12:09;;;;;;;11.00;2.67;;;8.10;99.90;;;;;;5028034;28;20842;-41
2021/10/22 07:14:36;;;;;;;8.73;3.37;;;8.30;99.90;;;;;;5025958;28;20564;-41
2021/10/22 07:17:04;;;;;;;8.87;3.60;;;8.10;99.90;;;;;;5020068;28;20507;-40
2021/10/22 07:19:30;;;;;;;8.07;2.67;;;8.40;99.90;;;;;;5020646;28;20781;-41
2021/10/22 07:22:03;;;;;;;8.27;3.17;;;8.40;99.90;;;;;;5028329;28;20804;-41
2021/10/22 07:24:30;;;;;;;7.23;2.47;;;8.40;99.90;;;;;;5027298;28;20437;-40
2021/10/22 07:26:55;;;;;;;6.50;2.90;;;8.40;99.90;;;;;;5026453;28;20883;-41
2021/10/22 07:29:21;;;;;;;8.07;2.90;;;8.50;99.90;;;;;;5027732;28;20472;-41
2021/10/22 07:31:47;;;;;;;8.70;2.83;;;8.60;99.90;;;;;;5023168;28;20195;-41
2021/10/22 07:34:15;;;;;;;6.90;2.53;;;8.30;99.90;;;;;;5021138;28;20226;-41
2021/10/22 07:36:41;;;;;;;7.33;2.97;;;8.40;99.90;;;;;;5019836;28;20313;-41
2021/10/22 07:39:07;;;;;;;5.80;2.00;;;8.60;99.90;;;;;;5027930;28;20435;-41
2021/10/22 07:41:33;;;;;;;6.97;2.57;;;8.60;99.90;;;;;;5028011;28;20417;-41
2021/10/22 07:43:59;;;;;;;7.20;3.23;;;8.90;99.90;;;;;;5026906;28;20487;-41
2021/10/22 07:46:24;;;;;;;6.40;2.50;;;8.50;99.90;;;;;;5026244;28;20487;-42
2021/10/22 07:48:50;;;;;;;4.70;2.03;;;8.40;99.90;;;;;;5014343;28;20425;-41
2021/10/22 07:51:16;;;;;;;6.40;2.40;;;8.40;99.90;;;;;;5027470;28;20778;-41
2021/10/22 07:53:42;;;;;;;9.53;3.77;;;8.40;99.90;;;;;;5025704;28;20653;-41
2021/10/22 07:56:07;;;;;;;11.07;3.40;;;8.60;99.90;;;;;;5027157;28;20289;-41
2021/10/22 07:58:33;;;;;;;5.23;2.30;;;8.60;99.90;;;;;;5027233;28;20441;-41
2021/10/22 08:00:59;;;;;;;8.30;2.80;;;8.80;99.90;;;;;;5006291;28;20285;-41
2021/10/22 08:03:25;;;;;;;6.37;2.40;;;8.90;99.90;;;;;;5014555;28;20400;-42
2021/10/22 08:05:51;;;;;;;8.00;2.73;;;9.00;99.90;;;;;;5026904;28;20578;-41
2021/10/22 08:08:17;;;;;;;8.50;2.67;;;9.00;99.90;;;;;;5027067;28;20425;-42
2021/10/22 08:10:43;;;;;;;7.23;2.37;;;9.00;99.90;;;;;;5027027;28;20501;-41
2021/10/22 08:13:11;;;;;;;9.87;2.97;;;8.90;99.90;;;;;;5026217;28;20541;-40
2021/10/22 08:15:39;;;;;;;6.17;2.53;;;8.90;99.90;;;;;;5024185;28;20284;-41
2021/10/22 08:18:06;;;;;;;7.33;2.40;;;9.10;99.90;;;;;;5019722;28;20509;-41
2021/10/22 08:20:34;;;;;;;8.67;2.50;;;8.80;99.90;;;;;;5026778;28;20484;-42
2021/10/22 08:23:00;;;;;;;6.27;2.60;;;8.70;99.90;;;;;;5024709;28;20951;-41
2021/10/22 08:25:26;;;;;;;4.77;2.20;;;9.10;99.90;;;;;;5027038;28;20518;-40
2021/10/22 08:27:51;;;;;;;6.57;2.60;;;9.50;99.90;;;;;;5026196;28;20194;-41
2021/10/22 08:30:23;;;;;;;5.10;2.03;;;9.50;99.90;;;;;;5026794;28;20251;-41
2021/10/22 08:32:50;;;;;;;5.47;2.27;;;9.50;99.90;;;;;;5019365;28;20194;-40
2021/10/22 08:35:19;;;;;;;3.63;2.13;;;9.40;99.90;;;;;;5023639;28;20428;-41
2021/10/22 08:37:46;;;;;;;8.23;3.27;;;9.40;99.90;;;;;;5024574;28;20947;-42
2021/10/22 08:40:13;;;;;;;6.73;2.50;;;9.10;99.90;;;;;;5026693;28;20445;-41
2021/10/22 08:42:40;;;;;;;6.97;2.80;;;9.20;99.90;;;;;;5026211;28;20835;-41
2021/10/22 08:45:06;;;;;;;7.00;2.30;;;8.90;99.90;;;;;;5026584;28;20846;-42
2021/10/22 08:47:33;;;;;;;3.57;1.80;;;9.30;99.90;;;;;;5021835;28;20459;-42
2021/10/22 08:50:05;;;;;;;7.40;2.17;;;9.00;99.90;;;;;;5022685;28;20478;-40
2021/10/22 08:52:31;;;;;;;7.03;2.40;;;9.10;99.90;;;;;;5026295;28;20429;-40
2021/10/22 08:54:58;;;;;;;5.67;1.93;;;9.10;99.90;;;;;;5025577;28;20428;-40
2021/10/22 08:57:24;;;;;;;6.30;2.60;;;9.20;99.90;;;;;;5025868;28;20592;-41
2021/10/22 08:59:52;;;;;;;7.50;2.20;;;9.20;99.90;;;;;;5026573;28;20483;-41
2021/10/22 09:02:22;;;;;;;7.00;2.40;;;9.20;99.90;;;;;;5024256;28;20186;-40
2021/10/22 09:04:49;;;;;;;5.97;2.50;;;9.40;99.90;;;;;;5023189;28;20858;-41
2021/10/22 09:07:18;;;;;;;10.47;2.83;;;9.10;99.90;;;;;;5026112;28;20429;-41
2021/10/22 09:09:45;;;;;;;6.60;2.20;;;9.50;99.90;;;;;;5025829;28;20567;-44
2021/10/22 09:12:12;;;;;;;4.10;2.43;;;9.30;99.90;;;;;;5026246;28;20429;-41
2021/10/22 09:14:56;;;;;;;9.57;2.80;;;9.20;99.90;;;;;;5024084;28;20610;-41
2021/10/22 09:17:34;;;;;;;7.13;2.47;;;9.20;99.90;;;;;;5023982;28;20456;-40
2021/10/22 09:19:59;;;;;;;6.40;1.80;;;9.20;99.90;;;;;;5016430;28;20438;-41
2021/10/22 09:22:32;;;;;;;9.23;2.33;;;9.20;99.90;;;;;;5025719;28;20535;-40
2021/10/22 09:25:01;;;;;;;7.27;2.10;;;9.30;99.90;;;;;;5025328;28;20190;-43
2021/10/22 09:27:37;;;;;;;5.00;2.00;;;9.40;99.90;;;;;;5026184;28;20834;-41
2021/10/22 09:30:07;;;;;;;7.30;1.80;;;9.30;99.90;;;;;;5025642;28;20424;-40
2021/10/22 09:32:34;;;;;;;7.50;2.43;;;9.60;99.90;;;;;;5023144;28;20425;-41
2021/10/22 09:35:00;;;;;;;6.93;1.90;;;9.70;99.90;;;;;;5018498;28;20638;-41
2021/10/22 09:37:38;;;;;;;5.77;1.90;;;9.80;99.90;;;;;;5025496;28;20734;-41
2021/10/22 09:40:05;;;;;;;7.33;2.67;;;9.80;99.90;;;;;;5026022;28;20295;-41
2021/10/22 09:42:30;;;;;;;9.53;2.30;;;9.80;99.90;;;;;;5025494;28;20737;-41
2021/10/22 09:44:56;;;;;;;9.00;2.30;;;9.90;99.90;;;;;;5024650;28;20421;-41
2021/10/22 09:47:22;;;;;;;6.33;2.60;;;9.80;99.90;;;;;;5025611;28;20501;-41
2021/10/22 09:50:06;;;;;;;5.13;2.30;;;10.10;99.90;;;;;;5018833;28;20189;-41
2021/10/22 09:52:32;;;;;;;6.20;2.20;;;9.80;99.90;;;;;;5029713;28;20194;-41
2021/10/22 09:55:08;;;;;;;9.73;2.20;;;9.90;99.90;;;;;;5029226;28;20421;-42
2021/10/22 09:57:33;;;;;;;7.33;1.97;;;10.40;99.90;;;;;;5029626;28;20704;-41
2021/10/22 10:00:07;;;;;;;12.63;2.13;;;10.40;99.90;;;;;;5029842;28;20504;-42
2021/10/22 10:02:35;;;;;;;6.97;2.00;;;10.60;99.90;;;;;;5028145;28;20443;-42
2021/10/22 10:05:02;;;;;;;7.73;2.03;;;10.90;99.90;;;;;;5018903;28;20429;-41
2021/10/22 10:07:27;;;;;;;8.60;2.73;;;11.10;99.90;;;;;;5028191;28;20870;-41
2021/10/22 10:09:54;;;;;;;7.00;2.27;;;11.30;99.90;;;;;;5029156;28;20425;-40
2021/10/22 10:12:21;;;;;;;6.00;3.10;;;11.40;99.90;;;;;;5029344;28;20205;-41
2021/10/22 10:14:47;;;;;;;2.97;1.40;;;11.40;99.90;;;;;;5027565;28;20432;-41
2021/10/22 10:17:13;;;;;;;5.10;3.00;;;11.50;99.90;;;;;;5028826;28;20910;-40
2021/10/22 10:19:50;;;;;;;6.63;2.10;;;11.50;99.90;;;;;;5018191;28;20846;-41
2021/10/22 10:22:19;;;;;;;5.90;3.23;;;11.50;99.90;;;;;;5028609;28;20943;-41
2021/10/22 10:24:49;;;;;;;6.93;2.50;;;11.50;99.90;;;;;;5028545;28;20421;-41
2021/10/22 10:27:21;;;;;;;5.53;2.27;;;11.70;99.90;;;;;;5028814;28;20421;-40
2021/10/22 10:29:49;;;;;;;3.70;1.57;;;11.80;99.90;;;;;;5029247;28;20428;-40
2021/10/22 10:32:21;;;;;;;6.37;2.03;;;11.80;99.90;;;;;;5029262;28;20417;-41
2021/10/22 10:34:55;;;;;;;3.70;1.70;;;11.60;99.90;;;;;;5016621;28;20428;-40
2021/10/22 10:37:31;;;;;;;4.93;1.90;;;11.60;99.90;;;;;;5028711;28;20504;-41
2021/10/22 10:40:14;;;;;;;5.97;2.50;;;11.50;99.90;;;;;;5015910;28;20520;-41
2021/10/22 10:42:51;;;;;;;6.70;1.77;;;11.60;99.90;;;;;;5028300;28;20413;-41
2021/10/22 10:45:23;;;;;;;7.53;2.20;;;11.60;99.90;;;;;;5028648;28;20760;-40
2021/10/22 10:48:04;;;;;;;8.63;2.03;;;11.50;99.90;;;;;;5028649;28;20476;-41
2021/10/22 10:50:57;;;;;;;4.53;1.80;;;11.30;99.90;;;;;;5022506;28;20420;-41
2021/10/22 10:53:30;;;;;;;7.10;2.17;;;11.40;99.90;;;;;;5027844;28;20429;-41
2021/10/22 10:55:57;;;;;;;8.40;2.20;;;11.50;99.90;;;;;;5028388;28;20468;-43
2021/10/22 10:58:23;;;;;;;4.83;1.83;;;11.60;99.90;;;;;;5027266;28;20474;-41
2021/10/22 11:00:54;;;;;;;5.93;1.80;;;11.60;99.90;;;;;;5028263;28;20422;-41
2021/10/22 11:03:46;;;;;;;4.63;1.80;;;11.50;99.90;;;;;;5026197;28;20471;-41
2021/10/22 11:06:13;;;;;;;5.90;1.80;;;11.50;99.90;;;;;;5018161;28;20417;-41
2021/10/22 11:08:42;;;;;;;2.73;1.43;;;11.50;99.90;;;;;;5026964;28;20425;-41
2021/10/22 11:11:16;;;;;;;6.17;2.07;;;11.60;99.90;;;;;;5028426;28;20425;-41
2021/10/22 11:13:42;;;;;;;3.93;1.60;;;11.50;99.90;;;;;;5027677;28;20868;-42
2021/10/22 11:16:24;;;;;;;4.63;1.50;;;11.50;99.90;;;;;;5026719;28;20543;-41
2021/10/22 11:18:54;;;;;;;6.87;2.20;;;11.70;99.90;;;;;;5022549;28;20187;-41
2021/10/22 11:21:24;;;;;;;12.53;2.40;;;11.50;99.90;;;;;;5023390;28;20414;-41
2021/10/22 11:23:51;;;;;;;5.27;1.87;;;11.70;99.90;;;;;;5027229;28;20932;-41
2021/10/22 11:26:20;;;;;;;7.93;2.07;;;11.60;99.90;;;;;;5028659;28;20413;-41
2021/10/22 11:28:57;;;;;;;5.73;1.53;;;11.70;99.90;;;;;;5027277;28;20481;-41
2021/10/22 11:31:39;;;;;;;4.73;1.43;;;11.90;99.90;;;;;;5033671;28;20428;-41
2021/10/22 11:34:06;;;;;;;6.23;2.63;;;11.80;99.90;;;;;;5035060;28;20595;-41
2021/10/22 11:36:33;;;;;;;4.27;1.53;;;11.80;99.90;;;;;;5020634;28;20453;-42
2021/10/22 11:39:15;;;;;;;4.23;1.73;;;11.80;99.90;;;;;;5027605;28;20433;-41
2021/10/22 11:41:41;;;;;;;2.43;1.30;;;11.70;99.90;;;;;;5016031;28;20424;-42
2021/10/22 11:44:10;;;;;;;4.70;1.70;;;11.80;99.90;;;;;;5027022;28;20722;-44
2021/10/22 11:46:47;;;;;;;5.40;1.87;;;12.00;99.90;;;;;;5028097;28;20190;-41
2021/10/22 11:49:35;;;;;;;5.37;1.90;;;11.80;99.90;;;;;;5022054;28;20794;-40
2021/10/22 11:52:02;;;;;;;4.40;1.80;;;11.70;99.90;;;;;;5022985;28;20996;-41
2021/10/22 11:54:39;;;;;;;4.13;1.57;;;11.60;99.90;;;;;;5027021;28;20421;-41
2021/10/22 11:57:08;;;;;;;6.43;2.03;;;11.70;99.90;;;;;;5027353;28;20460;-41
2021/10/22 11:59:40;;;;;;;5.33;2.50;;;11.50;99.90;;;;;;5027570;28;20405;-41
2021/10/22 12:02:07;;;;;;;10.10;2.30;;;11.50;99.90;;;;;;5027611;28;20850;-41
2021/10/22 12:04:34;;;;;;;5.43;1.90;;;11.50;99.90;;;;;;5019229;28;20847;-41
2021/10/22 12:07:11;;;;;;;5.47;2.37;;;11.40;99.90;;;;;;5023494;28;20478;-41
2021/10/22 12:09:39;;;;;;;5.43;2.00;;;11.40;99.90;;;;;;5027373;28;20532;-41
2021/10/22 12:12:06;;;;;;;5.00;2.10;;;11.20;99.90;;;;;;5026251;28;20437;-43
2021/10/22 12:14:44;;;;;;;6.90;2.00;;;11.30;99.90;;;;;;5026473;28;20971;-41
2021/10/22 12:17:13;;;;;;;6.80;2.40;;;11.50;99.90;;;;;;5026256;28;20547;-41
2021/10/22 12:19:41;;;;;;;7.47;1.60;;;11.40;99.90;;;;;;5023831;28;21072;-41
2021/10/22 12:22:08;;;;;;;5.40;1.50;;;11.60;99.90;;;;;;5021246;28;20783;-41
2021/10/22 12:24:48;;;;;;;3.20;1.90;;;11.40;99.90;;;;;;5025889;28;20425;-41
2021/10/22 12:27:15;;;;;;;3.83;1.83;;;11.50;99.90;;;;;;5026999;28;20444;-41
2021/10/22 12:29:54;;;;;;;10.73;2.13;;;11.50;99.90;;;;;;5026822;28;20447;-41
2021/10/22 12:32:39;;;;;;;7.10;2.67;;;11.70;99.90;;;;;;5026507;28;20465;-42
2021/10/22 12:35:14;;;;;;;4.70;2.00;;;11.40;99.90;;;;;;5017872;28;20480;-41
2021/10/22 12:37:42;;;;;;;5.47;2.30;;;11.60;99.90;;;;;;5021563;28;20858;-41
2021/10/22 12:40:35;;;;;;;7.07;1.93;;;11.60;99.90;;;;;;5026962;28;20432;-46
2021/10/22 12:43:04;;;;;;;5.53;2.20;;;11.60;99.90;;;;;;5025760;28;20470;-41
2021/10/22 12:45:30;;;;;;;3.73;2.13;;;11.60;99.90;;;;;;5026761;28;20431;-41
2021/10/22 12:48:03;;;;;;;5.50;2.63;;;11.90;99.90;;;;;;5026439;28;20924;-42
2021/10/22 12:50:33;;;;;;;11.57;2.40;;;11.60;99.90;;;;;;5017023;28;20198;-41
2021/10/22 12:53:01;;;;;;;7.77;2.80;;;11.60;99.90;;;;;;5024200;28;20413;-41
2021/10/22 12:55:28;;;;;;;9.23;2.70;;;11.60;99.90;;;;;;5026246;28;20434;-41
2021/10/22 12:58:16;;;;;;;4.60;1.90;;;11.60;99.90;;;;;;5026545;28;20956;-42
2021/10/22 13:00:43;;;;;;;3.60;2.20;;;11.70;99.90;;;;;;5025904;28;20439;-42
2021/10/22 13:03:09;;;;;;;3.50;2.60;;;11.70;99.90;;;;;;5025537;28;20786;-41